createdAt,value
2017-12-01T00:00:40.162Z,6.80
2017-12-01T00:03:09.723Z,10.07
2017-12-01T00:05:37.552Z,6.70
2017-12-01T00:08:06.962Z,8.17
2017-12-01T00:10:35.528Z,7.63
2017-12-01T00:13:09.072Z,6.10
2017-12-01T00:15:39.090Z,6.80
2017-12-01T00:18:08.433Z,6.90
2017-12-01T00:20:36.973Z,6.87
2017-12-01T00:23:04.946Z,7.43
2017-12-01T00:25:33.116Z,7.70
2017-12-01T00:28:08.309Z,9.67
2017-12-01T00:30:37.932Z,8.13
2017-12-01T00:33:05.681Z,8.50
2017-12-01T00:35:34.074Z,7.00
2017-12-01T00:38:07.566Z,7.97
2017-12-01T00:40:36.150Z,7.00
2017-12-01T00:43:04.075Z,6.70
2017-12-01T00:45:33.718Z,7.73
2017-12-01T00:48:03.118Z,7.73
2017-12-01T00:50:33.531Z,6.33
2017-12-01T00:53:01.277Z,8.73
2017-12-01T00:55:30.999Z,6.97
2017-12-01T00:57:58.619Z,8.33
2017-12-01T01:00:26.265Z,8.90
2017-12-01T01:03:00.979Z,6.97
2017-12-01T01:05:28.696Z,8.40
2017-12-01T01:07:57.121Z,7.47
2017-12-01T01:10:25.702Z,6.77
2017-12-01T01:12:53.378Z,6.97
2017-12-01T01:15:23.044Z,6.47
2017-12-01T01:17:51.473Z,7.73
2017-12-01T01:20:21.956Z,6.80
2017-12-01T01:22:50.584Z,7.17
2017-12-01T01:25:19.962Z,6.87
2017-12-01T01:27:51.323Z,7.33
2017-12-01T01:30:19.102Z,6.70
2017-12-01T01:32:46.809Z,7.20
2017-12-01T01:35:17.231Z,7.20
2017-12-01T01:37:47.615Z,5.90
2017-12-01T01:40:17.056Z,7.13
2017-12-01T01:42:45.463Z,8.70
2017-12-01T01:45:13.110Z,6.30
2017-12-01T01:47:41.014Z,6.00
2017-12-01T01:50:10.396Z,6.40
2017-12-01T01:52:38.114Z,7.90
2017-12-01T01:55:07.632Z,7.10
2017-12-01T01:57:37.966Z,7.47
2017-12-01T02:00:05.695Z,6.10
2017-12-01T02:02:36.167Z,5.50
2017-12-01T02:05:03.812Z,7.90
2017-12-01T02:07:36.088Z,5.70
2017-12-01T02:10:05.547Z,6.73
2017-12-01T02:12:35.812Z,6.37
2017-12-01T02:15:04.226Z,5.90
2017-12-01T02:17:33.722Z,7.77
2017-12-01T02:20:07.600Z,6.60
2017-12-01T02:22:37.928Z,6.80
2017-12-01T02:25:06.398Z,6.33
2017-12-01T02:27:34.332Z,6.13
2017-12-01T02:30:02.777Z,6.33
2017-12-01T02:32:32.156Z,7.17
2017-12-01T02:35:00.666Z,6.60
2017-12-01T02:37:30.082Z,6.63
2017-12-01T02:40:05.725Z,6.10
2017-12-01T02:42:34.208Z,8.90
2017-12-01T02:45:03.648Z,6.77
2017-12-01T02:47:32.182Z,6.27
2017-12-01T02:49:59.894Z,7.97
2017-12-01T02:52:30.218Z,6.87
2017-12-01T02:54:58.019Z,7.00
2017-12-01T02:57:27.410Z,7.20
2017-12-01T02:59:56.043Z,6.60
2017-12-01T03:02:25.033Z,6.33
2017-12-01T03:04:57.314Z,6.53
2017-12-01T03:07:26.082Z,8.90
2017-12-01T03:09:55.588Z,8.10
2017-12-01T03:12:23.290Z,7.60
2017-12-01T03:14:53.289Z,7.73
2017-12-01T03:17:21.676Z,5.87
2017-12-01T03:19:50.246Z,6.00
2017-12-01T03:22:18.648Z,7.77
2017-12-01T03:24:47.636Z,6.80
2017-12-01T03:27:15.302Z,7.10
2017-12-01T03:29:44.864Z,7.33
2017-12-01T03:32:12.677Z,8.50
2017-12-01T03:34:42.126Z,5.80
2017-12-01T03:37:10.587Z,8.37
2017-12-01T03:39:38.257Z,5.87
2017-12-01T03:42:07.671Z,6.20
2017-12-01T03:44:37.220Z,8.30
2017-12-01T03:47:04.942Z,7.20
2017-12-01T03:49:34.612Z,6.43
2017-12-01T03:52:02.424Z,6.03
2017-12-01T03:54:30.112Z,6.13
2017-12-01T03:56:59.539Z,7.53
2017-12-01T03:59:27.252Z,6.07
2017-12-01T04:01:56.852Z,6.27
2017-12-01T04:04:24.550Z,7.80
2017-12-01T04:06:52.562Z,6.80
2017-12-01T04:09:20.241Z,8.43
2017-12-01T04:11:48.658Z,8.90
2017-12-01T04:14:16.300Z,6.90
2017-12-01T04:16:47.242Z,7.60
2017-12-01T04:19:15.663Z,7.27
2017-12-01T04:21:44.064Z,6.23
2017-12-01T04:24:14.086Z,6.87
2017-12-01T04:26:42.710Z,6.50
2017-12-01T04:29:12.784Z,7.00
2017-12-01T04:31:42.323Z,7.50
2017-12-01T04:34:10.068Z,7.43
2017-12-01T04:36:39.575Z,6.30
2017-12-01T04:39:07.405Z,10.60
2017-12-01T04:41:35.091Z,7.40
2017-12-01T04:44:02.765Z,8.70
2017-12-01T04:46:31.093Z,6.03
2017-12-01T04:48:58.786Z,7.17
2017-12-01T04:51:28.213Z,6.03
2017-12-01T04:53:57.659Z,6.67
2017-12-01T04:56:28.003Z,8.33
2017-12-01T04:58:57.939Z,8.73
2017-12-01T05:01:27.119Z,7.63
2017-12-01T05:03:56.612Z,7.40
2017-12-01T05:06:25.089Z,8.13
2017-12-01T05:08:54.518Z,6.97
2017-12-01T05:11:24.115Z,7.10
2017-12-01T05:13:54.471Z,7.90
2017-12-01T05:16:23.597Z,8.80
2017-12-01T05:18:53.071Z,7.97
2017-12-01T05:21:20.817Z,8.03
2017-12-01T05:23:50.657Z,7.70
2017-12-01T05:26:18.318Z,7.40
2017-12-01T05:28:47.569Z,7.00
2017-12-01T05:31:15.239Z,15.10
2017-12-01T05:33:42.943Z,9.00
2017-12-01T05:36:10.603Z,7.30
2017-12-01T05:38:40.098Z,7.67
2017-12-01T05:41:08.731Z,7.60
2017-12-01T05:43:39.136Z,10.27
2017-12-01T05:46:09.349Z,10.20
2017-12-01T05:48:38.912Z,7.83
2017-12-01T05:51:08.868Z,8.10
2017-12-01T05:53:36.688Z,9.53
2017-12-01T05:56:07.175Z,14.87
2017-12-01T05:58:39.533Z,10.63
2017-12-01T06:01:07.955Z,9.67
2017-12-01T06:03:35.645Z,8.43
2017-12-01T06:06:04.141Z,9.93
2017-12-01T06:08:32.825Z,8.43
2017-12-01T06:11:02.358Z,12.03
2017-12-01T06:13:31.059Z,13.33
2017-12-01T06:15:59.401Z,10.97
2017-12-01T06:18:29.165Z,12.03
2017-12-01T06:20:58.902Z,15.07
2017-12-01T06:23:28.536Z,11.13
2017-12-01T06:25:57.206Z,11.33
2017-12-01T06:28:24.859Z,10.67
2017-12-01T06:30:55.731Z,13.80
2017-12-01T06:33:24.199Z,19.10
2017-12-01T06:35:52.665Z,14.37
2017-12-01T06:38:21.354Z,21.90
2017-12-01T06:40:53.349Z,23.97
2017-12-01T06:43:21.283Z,45.83
2017-12-01T06:45:51.565Z,48.40
2017-12-01T06:48:19.295Z,35.23
2017-12-01T06:50:48.709Z,31.73
2017-12-01T06:53:18.329Z,32.03
2017-12-01T06:55:47.860Z,26.80
2017-12-01T06:58:15.788Z,17.23
2017-12-01T07:00:44.357Z,15.90
2017-12-01T07:03:12.838Z,13.63
2017-12-01T07:05:40.511Z,12.53
2017-12-01T07:08:08.232Z,13.30
2017-12-01T07:10:36.727Z,15.90
2017-12-01T07:13:06.191Z,14.83
2017-12-01T07:15:33.917Z,15.37
2017-12-01T07:18:01.662Z,14.40
2017-12-01T07:20:31.560Z,13.40
2017-12-01T07:22:59.364Z,15.10
2017-12-01T07:25:27.084Z,15.70
2017-12-01T07:27:54.781Z,11.50
2017-12-01T07:30:26.216Z,12.90
2017-12-01T07:32:53.938Z,14.30
2017-12-01T07:35:23.376Z,24.17
2017-12-01T07:37:52.993Z,12.93
2017-12-01T07:40:20.711Z,15.20
2017-12-01T07:42:48.416Z,16.80
2017-12-01T07:45:16.900Z,14.57
2017-12-01T07:47:47.248Z,14.93
2017-12-01T07:50:15.246Z,14.63
2017-12-01T07:52:43.084Z,16.10
2017-12-01T07:55:10.940Z,46.73
2017-12-01T07:57:41.226Z,42.50
2017-12-01T08:00:08.908Z,49.60
2017-12-01T08:02:36.634Z,44.37
2017-12-01T08:05:04.317Z,29.33
2017-12-01T08:07:34.488Z,19.03
2017-12-01T08:10:03.888Z,15.37
2017-12-01T08:12:32.358Z,15.70
2017-12-01T08:15:01.898Z,19.80
2017-12-01T08:17:31.181Z,15.57
2017-12-01T08:19:58.869Z,20.83
2017-12-01T08:22:40.221Z,19.00
2017-12-01T08:25:20.922Z,20.00
2017-12-01T08:27:48.672Z,19.30
2017-12-01T08:30:18.352Z,25.07
2017-12-01T08:32:47.696Z,27.20
2017-12-01T08:35:15.459Z,16.63
2017-12-01T08:37:43.105Z,18.67
2017-12-01T08:40:12.669Z,17.87
2017-12-01T08:42:43.024Z,16.47
2017-12-01T08:45:12.530Z,20.83
2017-12-01T08:47:42.104Z,15.97
2017-12-01T08:50:10.035Z,15.30
2017-12-01T08:52:39.334Z,31.13
2017-12-01T08:55:09.959Z,45.13
2017-12-01T08:57:39.341Z,48.47
2017-12-01T09:00:07.069Z,23.77
2017-12-01T09:02:35.636Z,18.00
2017-12-01T09:05:05.084Z,16.40
2017-12-01T09:07:35.453Z,19.40
2017-12-01T09:10:03.307Z,19.50
2017-12-01T09:12:32.576Z,18.40
2017-12-01T09:15:00.339Z,15.03
2017-12-01T09:17:28.072Z,16.50
2017-12-01T09:19:56.550Z,23.83
2017-12-01T09:22:24.327Z,20.03
2017-12-01T09:24:56.178Z,17.10
2017-12-01T09:27:25.502Z,14.53
2017-12-01T09:29:53.245Z,17.50
2017-12-01T09:32:22.820Z,16.33
2017-12-01T09:34:52.299Z,15.20
2017-12-01T09:37:20.844Z,13.77
2017-12-01T09:39:50.430Z,15.07
2017-12-01T09:42:20.785Z,17.90
2017-12-01T09:44:50.671Z,14.77
2017-12-01T09:47:18.345Z,14.67
2017-12-01T09:49:47.798Z,16.67
2017-12-01T09:52:17.236Z,14.80
2017-12-01T09:54:47.525Z,13.33
2017-12-01T09:57:17.967Z,14.17
2017-12-01T09:59:47.495Z,12.23
2017-12-01T10:02:15.993Z,12.97
2017-12-01T10:04:43.789Z,14.63
2017-12-01T10:07:11.681Z,14.10
2017-12-01T10:09:40.397Z,12.40
2017-12-01T10:12:08.189Z,10.17
2017-12-01T10:14:35.997Z,12.63
2017-12-01T10:17:04.675Z,9.80
2017-12-01T10:19:32.333Z,11.60
2017-12-01T10:22:01.769Z,12.63
2017-12-01T10:24:30.227Z,11.67
2017-12-01T10:26:57.981Z,11.70
2017-12-01T10:29:25.792Z,13.03
2017-12-01T10:31:59.160Z,20.80
2017-12-01T10:34:26.857Z,15.13
2017-12-01T10:36:56.410Z,21.13
2017-12-01T10:39:26.022Z,14.83
2017-12-01T10:41:53.821Z,12.40
2017-12-01T10:44:21.474Z,14.73
2017-12-01T10:46:50.903Z,15.60
2017-12-01T10:49:18.583Z,18.70
2017-12-01T10:51:47.039Z,14.70
2017-12-01T10:54:14.771Z,15.10
2017-12-01T10:56:42.460Z,16.37
2017-12-01T10:59:11.035Z,14.30
2017-12-01T11:01:39.526Z,17.30
2017-12-01T11:04:07.305Z,14.27
2017-12-01T11:06:35.079Z,13.77
2017-12-01T11:09:04.520Z,14.07
2017-12-01T11:11:33.956Z,15.70
2017-12-01T11:14:03.305Z,14.13
2017-12-01T11:16:32.872Z,14.47
2017-12-01T11:19:00.542Z,15.97
2017-12-01T11:21:30.251Z,16.00
2017-12-01T11:24:00.816Z,14.67
2017-12-01T11:26:30.173Z,12.57
2017-12-01T11:28:58.899Z,13.60
2017-12-01T11:31:26.591Z,11.60
2017-12-01T11:33:56.809Z,17.53
2017-12-01T11:36:25.261Z,13.27
2017-12-01T11:38:53.057Z,15.10
2017-12-01T11:41:22.479Z,14.30
2017-12-01T11:43:52.876Z,21.53
2017-12-01T11:46:23.251Z,13.90
2017-12-01T11:48:50.999Z,25.37
2017-12-01T11:51:21.337Z,13.10
2017-12-01T11:53:51.663Z,11.93
2017-12-01T11:56:19.456Z,11.83
2017-12-01T11:58:49.097Z,12.67
2017-12-01T12:01:18.533Z,10.37
2017-12-01T12:03:47.970Z,9.40
2017-12-01T12:06:15.768Z,10.80
2017-12-01T12:08:45.611Z,11.40
2017-12-01T12:11:15.933Z,9.43
2017-12-01T12:13:43.660Z,8.27
2017-12-01T12:16:13.543Z,16.03
2017-12-01T12:18:42.855Z,23.00
2017-12-01T12:21:10.571Z,10.07
2017-12-01T12:23:40.622Z,7.87
2017-12-01T12:26:08.506Z,9.70
2017-12-01T12:28:37.944Z,7.40
2017-12-01T12:31:06.673Z,8.17
2017-12-01T12:33:34.454Z,7.80
2017-12-01T12:36:04.926Z,5.97
2017-12-01T12:38:33.555Z,6.13
2017-12-01T12:41:01.534Z,6.03
2017-12-01T12:43:29.216Z,6.47
2017-12-01T12:45:59.152Z,6.30
2017-12-01T12:48:26.824Z,6.30
2017-12-01T12:50:54.526Z,6.57
2017-12-01T12:53:22.450Z,10.47
2017-12-01T12:55:50.155Z,9.40
2017-12-01T12:58:17.873Z,7.23
2017-12-01T13:00:45.644Z,7.00
2017-12-01T13:03:15.575Z,10.03
2017-12-01T13:05:45.475Z,7.97
2017-12-01T13:08:16.965Z,8.67
2017-12-01T13:10:46.526Z,13.27
2017-12-01T13:13:17.001Z,11.67
2017-12-01T13:15:46.608Z,11.80
2017-12-01T13:18:15.905Z,9.03
2017-12-01T13:20:47.558Z,8.40
2017-12-01T13:23:17.084Z,13.80
2017-12-01T13:25:46.674Z,7.10
2017-12-01T13:28:15.357Z,12.20
2017-12-01T13:30:44.208Z,13.00
2017-12-01T13:33:11.901Z,10.10
2017-12-01T13:35:40.364Z,9.23
2017-12-01T13:38:08.049Z,13.80
2017-12-01T13:40:37.552Z,11.00
2017-12-01T13:43:06.049Z,9.80
2017-12-01T13:45:35.414Z,10.70
2017-12-01T13:48:03.179Z,10.40
2017-12-01T13:50:31.629Z,11.43
2017-12-01T13:52:59.472Z,12.40
2017-12-01T13:55:27.147Z,13.50
2017-12-01T13:57:55.076Z,8.20
2017-12-01T14:00:22.808Z,8.10
2017-12-01T14:02:51.239Z,10.53
2017-12-01T14:05:18.924Z,10.13
2017-12-01T14:07:46.582Z,13.40
2017-12-01T14:10:16.130Z,8.17
2017-12-01T14:12:44.696Z,12.37
2017-12-01T14:15:14.107Z,8.17
2017-12-01T14:17:44.480Z,8.83
2017-12-01T14:20:12.199Z,18.97
2017-12-01T14:22:39.958Z,13.30
2017-12-01T14:25:07.762Z,11.83
2017-12-01T14:27:35.524Z,14.17
2017-12-01T14:30:04.984Z,12.50
2017-12-01T14:32:35.037Z,9.27
2017-12-01T14:35:04.940Z,13.70
2017-12-01T14:37:34.635Z,12.10
2017-12-01T14:40:02.668Z,11.70
2017-12-01T14:42:30.482Z,8.77
2017-12-01T14:44:58.182Z,11.70
2017-12-01T14:47:27.583Z,13.10
2017-12-01T14:49:56.124Z,18.70
2017-12-01T14:52:23.881Z,31.13
2017-12-01T14:54:53.194Z,15.80
2017-12-01T14:57:20.989Z,14.40
2017-12-01T14:59:48.747Z,17.33
2017-12-01T15:02:18.785Z,14.67
2017-12-01T15:04:47.585Z,14.63
2017-12-01T15:07:17.392Z,17.77
2017-12-01T15:09:47.683Z,14.33
2017-12-01T15:12:17.263Z,16.50
2017-12-01T15:14:45.077Z,14.40
2017-12-01T15:17:15.600Z,16.10
2017-12-01T15:19:43.318Z,14.27
2017-12-01T15:22:13.679Z,18.77
2017-12-01T15:24:44.018Z,19.33
2017-12-01T15:27:11.753Z,18.67
2017-12-01T15:29:39.589Z,22.83
2017-12-01T15:32:07.276Z,16.30
2017-12-01T15:34:35.030Z,14.43
2017-12-01T15:37:05.334Z,15.47
2017-12-01T15:39:35.262Z,14.17
2017-12-01T15:42:02.939Z,20.33
2017-12-01T15:44:30.660Z,27.03
2017-12-01T15:47:00.928Z,20.47
2017-12-01T15:49:29.411Z,15.90
2017-12-01T15:51:57.080Z,15.77
2017-12-01T15:54:28.584Z,16.27
2017-12-01T15:56:58.141Z,15.10
2017-12-01T15:59:25.902Z,14.77
2017-12-01T16:01:54.300Z,15.80
2017-12-01T16:04:22.029Z,15.27
2017-12-01T16:06:49.706Z,15.73
2017-12-01T16:09:18.171Z,15.83
2017-12-01T16:11:48.490Z,20.77
2017-12-01T16:14:18.930Z,20.20
2017-12-01T16:16:47.504Z,21.13
2017-12-01T16:19:15.292Z,29.60
2017-12-01T16:21:45.371Z,24.90
2017-12-01T16:24:14.678Z,30.57
2017-12-01T16:26:42.580Z,25.30
2017-12-01T16:29:10.315Z,23.97
2017-12-01T16:31:39.648Z,23.87
2017-12-01T16:34:07.396Z,28.00
2017-12-01T16:36:37.005Z,41.70
2017-12-01T16:39:07.651Z,32.90
2017-12-01T16:41:35.350Z,25.00
2017-12-01T16:44:04.838Z,17.23
2017-12-01T16:46:34.363Z,19.60
2017-12-01T16:49:03.920Z,21.67
2017-12-01T16:51:33.447Z,19.80
2017-12-01T16:54:01.385Z,20.00
2017-12-01T16:56:29.259Z,20.10
2017-12-01T16:58:57.703Z,23.00
2017-12-01T17:01:27.158Z,19.17
2017-12-01T17:03:54.953Z,28.73
2017-12-01T17:06:22.707Z,19.00
2017-12-01T17:08:54.286Z,20.20
2017-12-01T17:11:22.827Z,24.10
2017-12-01T17:13:51.296Z,24.00
2017-12-01T17:16:19.942Z,24.50
2017-12-01T17:18:50.335Z,23.47
2017-12-01T17:21:20.076Z,21.80
2017-12-01T17:23:48.114Z,26.30
2017-12-01T17:26:15.853Z,26.08
2017-12-01T17:28:45.152Z,25.75
2017-12-01T17:31:14.565Z,23.00
2017-12-01T17:33:44.059Z,23.50
2017-12-01T17:36:12.634Z,24.53
2017-12-01T17:38:40.353Z,22.37
2017-12-01T17:41:10.092Z,23.30
2017-12-01T17:43:37.922Z,22.90
2017-12-01T17:46:06.412Z,21.30
2017-12-01T17:48:35.805Z,25.13
2017-12-01T17:51:05.959Z,24.77
2017-12-01T17:53:35.454Z,22.77
2017-12-01T17:56:03.194Z,26.80
2017-12-01T17:58:30.886Z,24.63
2017-12-01T18:00:59.362Z,25.30
2017-12-01T18:03:27.073Z,21.30
2017-12-01T18:05:56.484Z,22.80
2017-12-01T18:08:25.158Z,22.93
2017-12-01T18:10:52.908Z,32.03
2017-12-01T18:13:20.887Z,26.97
2017-12-01T18:15:48.669Z,33.83
2017-12-01T18:18:18.246Z,29.47
2017-12-01T18:20:48.537Z,31.80
2017-12-01T18:23:17.223Z,28.87
2017-12-01T18:25:44.922Z,30.80
2017-12-01T18:28:15.541Z,27.63
2017-12-01T18:30:45.073Z,29.43
2017-12-01T18:33:13.083Z,27.27
2017-12-01T18:35:40.865Z,30.87
2017-12-01T18:38:10.283Z,34.77
2017-12-01T18:40:40.889Z,40.47
2017-12-01T18:43:11.401Z,42.03
2017-12-01T18:45:41.687Z,42.80
2017-12-01T18:48:09.398Z,35.03
2017-12-01T18:50:37.157Z,36.53
2017-12-01T18:53:06.860Z,36.60
2017-12-01T18:55:37.505Z,35.43
2017-12-01T18:58:05.287Z,31.53
2017-12-01T19:00:33.975Z,35.30
2017-12-01T19:03:02.439Z,30.13
2017-12-01T19:05:30.355Z,32.03
2017-12-01T19:08:00.999Z,32.00
2017-12-01T19:10:30.298Z,35.80
2017-12-01T19:12:58.171Z,35.43
2017-12-01T19:15:25.882Z,33.63
2017-12-01T19:17:54.394Z,30.47
2017-12-01T19:20:24.596Z,30.73
2017-12-01T19:22:53.232Z,30.40
2017-12-01T19:25:20.915Z,35.00
2017-12-01T19:27:51.353Z,36.17
2017-12-01T19:30:19.325Z,36.17
2017-12-01T19:32:47.800Z,38.80
2017-12-01T19:35:15.645Z,35.93
2017-12-01T19:37:43.529Z,40.03
2017-12-01T19:40:13.064Z,32.57
2017-12-01T19:42:40.892Z,31.20
2017-12-01T19:45:08.671Z,29.00
2017-12-01T19:47:36.453Z,30.10
2017-12-01T19:50:04.284Z,28.20
2017-12-01T19:52:33.771Z,33.17
2017-12-01T19:55:01.628Z,37.50
2017-12-01T19:57:29.449Z,35.03
2017-12-01T19:59:57.339Z,36.77
2017-12-01T20:02:25.407Z,37.57
2017-12-01T20:04:53.200Z,36.27
2017-12-01T20:07:21.096Z,31.30
2017-12-01T20:09:50.655Z,29.30
2017-12-01T20:12:19.269Z,32.90
2017-12-01T20:14:48.779Z,31.80
2017-12-01T20:17:18.265Z,30.00
2017-12-01T20:19:46.251Z,31.87
2017-12-01T20:22:14.019Z,31.17
2017-12-01T20:24:41.880Z,35.47
2017-12-01T20:27:10.051Z,46.40
2017-12-01T20:29:38.034Z,40.20
2017-12-01T20:32:06.742Z,36.70
2017-12-01T20:34:34.866Z,34.50
2017-12-01T20:37:04.528Z,32.13
2017-12-01T20:39:32.543Z,32.73
2017-12-01T20:42:01.406Z,29.90
2017-12-01T20:44:29.337Z,27.87
2017-12-01T20:46:57.284Z,29.00
2017-12-01T20:49:26.212Z,26.73
2017-12-01T20:51:54.871Z,24.53
2017-12-01T20:54:25.521Z,27.97
2017-12-01T20:56:53.390Z,31.47
2017-12-01T20:59:21.292Z,30.87
2017-12-01T21:01:51.522Z,31.30
2017-12-01T21:04:19.603Z,29.60
2017-12-01T21:06:48.615Z,28.57
2017-12-01T21:09:16.548Z,30.53
2017-12-01T21:11:44.405Z,27.27
2017-12-01T21:14:13.307Z,27.67
2017-12-01T21:16:41.185Z,30.07
2017-12-01T21:19:08.978Z,28.60
2017-12-01T21:21:36.739Z,29.53
2017-12-01T21:24:06.497Z,30.47
2017-12-01T21:26:34.502Z,30.30
2017-12-01T21:29:02.469Z,31.60
2017-12-01T21:31:30.412Z,36.00
2017-12-01T21:34:00.493Z,35.17
2017-12-01T21:36:30.816Z,36.37
2017-12-01T21:38:59.419Z,37.20
2017-12-01T21:41:28.093Z,43.20
2017-12-01T21:43:55.905Z,71.57
2017-12-01T21:46:23.771Z,74.23
2017-12-01T21:48:51.498Z,80.93
2017-12-01T21:51:19.982Z,75.90
2017-12-01T21:53:49.404Z,67.03
2017-12-01T21:56:19.777Z,73.03
2017-12-01T21:58:47.580Z,61.80
2017-12-01T22:01:16.126Z,55.67
2017-12-01T22:03:45.045Z,55.80
2017-12-01T22:06:13.029Z,54.40
2017-12-01T22:08:41.076Z,49.10
2017-12-01T22:11:08.991Z,39.77
2017-12-01T22:13:37.478Z,39.60
2017-12-01T22:16:05.196Z,39.83
2017-12-01T22:18:32.929Z,37.57
2017-12-01T22:21:00.613Z,73.20
2017-12-01T22:23:28.392Z,67.80
2017-12-01T22:25:56.290Z,57.47
2017-12-01T22:28:24.218Z,57.60
2017-12-01T22:30:51.906Z,55.67
2017-12-01T22:33:21.500Z,42.90
2017-12-01T22:35:51.945Z,44.10
2017-12-01T22:38:22.272Z,38.50
2017-12-01T22:40:50.031Z,41.03
2017-12-01T22:43:17.995Z,33.37
2017-12-01T22:45:45.875Z,37.83
2017-12-01T22:48:15.325Z,36.00
2017-12-01T22:50:43.175Z,40.00
2017-12-01T22:53:12.750Z,34.33
2017-12-01T22:55:40.540Z,30.87
2017-12-01T22:58:08.308Z,29.10
2017-12-01T23:00:36.173Z,33.07
2017-12-01T23:03:04.989Z,30.03
2017-12-01T23:05:32.797Z,33.20
2017-12-01T23:08:00.551Z,31.40
2017-12-01T23:10:28.441Z,31.63
2017-12-01T23:12:59.065Z,29.27
2017-12-01T23:15:26.960Z,28.83
2017-12-01T23:17:54.717Z,31.30
2017-12-01T23:20:23.358Z,30.63
2017-12-01T23:22:52.678Z,27.80
2017-12-01T23:25:20.611Z,29.40
2017-12-01T23:27:51.861Z,29.30
2017-12-01T23:30:19.916Z,30.33
2017-12-01T23:32:47.708Z,27.50
2017-12-01T23:35:15.554Z,35.63
2017-12-01T23:37:43.322Z,30.83
2017-12-01T23:40:12.767Z,30.17
2017-12-01T23:42:40.620Z,30.00
2017-12-01T23:45:10.164Z,30.33
2017-12-01T23:47:38.074Z,26.93
2017-12-01T23:50:06.208Z,29.13
2017-12-01T23:52:34.156Z,30.80
2017-12-01T23:55:02.728Z,40.73
2017-12-01T23:57:33.194Z,28.20
